sensor_id;sensor_type;location;lat;lon;timestamp;pressure;altitude;pressure_sealevel;temperature;humidity
38466;BME280;24244;51.950;5.902;2024-01-30T00:01:56;102545.97;;;8.14;85.83
38466;BME280;24244;51.950;5.902;2024-01-30T00:04:23;102556.44;;;8.15;86.11
38466;BME280;24244;51.950;5.902;2024-01-30T00:06:51;102547.53;;;8.16;86.12
38466;BME280;24244;51.950;5.902;2024-01-30T00:09:19;102549.19;;;8.17;86.10
38466;BME280;24244;51.950;5.902;2024-01-30T00:11:48;102541.25;;;8.17;86.02
38466;BME280;24244;51.950;5.902;2024-01-30T00:14:15;102549.91;;;8.19;86.13
38466;BME280;24244;51.950;5.902;2024-01-30T00:16:42;102556.91;;;8.20;86.24
38466;BME280;24244;51.950;5.902;2024-01-30T00:19:09;102550.53;;;8.23;86.09
38466;BME280;24244;51.950;5.902;2024-01-30T00:21:36;102546.06;;;8.23;86.28
38466;BME280;24244;51.950;5.902;2024-01-30T00:24:04;102544.25;;;8.24;86.34
38466;BME280;24244;51.950;5.902;2024-01-30T00:26:31;102543.41;;;8.23;85.97
38466;BME280;24244;51.950;5.902;2024-01-30T00:28:59;102555.53;;;8.26;86.39
38466;BME280;24244;51.950;5.902;2024-01-30T00:31:28;102545.91;;;8.25;86.14
38466;BME280;24244;51.950;5.902;2024-01-30T00:33:55;102548.56;;;8.25;86.41
38466;BME280;24244;51.950;5.902;2024-01-30T00:36:22;102544.09;;;8.25;86.24
38466;BME280;24244;51.950;5.902;2024-01-30T00:38:50;102535.19;;;8.26;86.39
38466;BME280;24244;51.950;5.902;2024-01-30T00:41:17;102537.84;;;8.26;86.54
38466;BME280;24244;51.950;5.902;2024-01-30T00:43:44;102537.00;;;8.26;86.31
38466;BME280;24244;51.950;5.902;2024-01-30T00:46:13;102544.09;;;8.25;86.56
38466;BME280;24244;51.950;5.902;2024-01-30T00:48:40;102541.47;;;8.25;86.37
38466;BME280;24244;51.950;5.902;2024-01-30T00:51:07;102541.59;;;8.24;86.36
38466;BME280;24244;51.950;5.902;2024-01-30T00:53:34;102542.41;;;8.24;86.48
38466;BME280;24244;51.950;5.902;2024-01-30T00:56:01;102536.44;;;8.22;86.57
38466;BME280;24244;51.950;5.902;2024-01-30T00:58:28;102534.63;;;8.23;86.46
38466;BME280;24244;51.950;5.902;2024-01-30T01:00:55;102531.97;;;8.23;86.64
38466;BME280;24244;51.950;5.902;2024-01-30T01:03:23;102532.09;;;8.21;86.73
38466;BME280;24244;51.950;5.902;2024-01-30T01:05:50;102526.06;;;8.19;86.70
38466;BME280;24244;51.950;5.902;2024-01-30T01:08:17;102529.56;;;8.20;86.52
38466;BME280;24244;51.950;5.902;2024-01-30T01:10:45;102534.03;;;8.19;86.59
38466;BME280;24244;51.950;5.902;2024-01-30T01:13:11;102535.00;;;8.18;86.55
38466;BME280;24244;51.950;5.902;2024-01-30T01:15:39;102531.50;;;8.18;86.50
38466;BME280;24244;51.950;5.902;2024-01-30T01:18:05;102524.38;;;8.18;86.66
38466;BME280;24244;51.950;5.902;2024-01-30T01:20:34;102526.34;;;8.16;86.72
38466;BME280;24244;51.950;5.902;2024-01-30T01:23:01;102532.34;;;8.18;86.72
38466;BME280;24244;51.950;5.902;2024-01-30T01:25:28;102529.00;;;8.16;86.44
38466;BME280;24244;51.950;5.902;2024-01-30T01:27:55;102525.63;;;8.14;86.73
38466;BME280;24244;51.950;5.902;2024-01-30T01:30:22;102522.00;;;8.15;86.62
38466;BME280;24244;51.950;5.902;2024-01-30T01:32:49;102521.06;;;8.16;86.52
38466;BME280;24244;51.950;5.902;2024-01-30T01:35:21;102521.16;;;8.15;86.54
38466;BME280;24244;51.950;5.902;2024-01-30T01:37:51;102518.66;;;8.13;86.80
38466;BME280;24244;51.950;5.902;2024-01-30T01:40:26;102520.31;;;8.14;86.55
38466;BME280;24244;51.950;5.902;2024-01-30T01:42:56;102517.69;;;8.14;86.68
38466;BME280;24244;51.950;5.902;2024-01-30T01:45:23;102505.41;;;8.13;86.59
38466;BME280;24244;51.950;5.902;2024-01-30T01:47:51;102516.97;;;8.12;86.64
38466;BME280;24244;51.950;5.902;2024-01-30T01:50:19;102515.28;;;8.11;86.72
38466;BME280;24244;51.950;5.902;2024-01-30T01:52:47;102512.63;;;8.11;86.56
38466;BME280;24244;51.950;5.902;2024-01-30T01:55:17;102516.97;;;8.12;86.56
38466;BME280;24244;51.950;5.902;2024-01-30T01:57:48;102515.28;;;8.11;86.52
38466;BME280;24244;51.950;5.902;2024-01-30T02:00:15;102509.13;;;8.11;86.54
38466;BME280;24244;51.950;5.902;2024-01-30T02:02:45;102508.28;;;8.10;86.52
38466;BME280;24244;51.950;5.902;2024-01-30T02:05:12;102505.78;;;8.09;86.82
38466;BME280;24244;51.950;5.902;2024-01-30T02:07:39;102510.25;;;8.08;86.75
38466;BME280;24244;51.950;5.902;2024-01-30T02:10:08;102496.16;;;8.08;86.74
38466;BME280;24244;51.950;5.902;2024-01-30T02:12:37;102500.50;;;8.09;86.56
38466;BME280;24244;51.950;5.902;2024-01-30T02:15:05;102498.81;;;8.08;86.53
38466;BME280;24244;51.950;5.902;2024-01-30T02:17:34;102497.97;;;8.07;86.57
38466;BME280;24244;51.950;5.902;2024-01-30T02:20:01;102491.09;;;8.05;86.43
38466;BME280;24244;51.950;5.902;2024-01-30T02:22:31;102502.81;;;8.02;86.58
38466;BME280;24244;51.950;5.902;2024-01-30T02:24:59;102500.41;;;7.99;86.43
38466;BME280;24244;51.950;5.902;2024-01-30T02:27:26;102497.31;;;7.94;86.55
38466;BME280;24244;51.950;5.902;2024-01-30T02:29:52;102497.81;;;7.88;86.68
38466;BME280;24244;51.950;5.902;2024-01-30T02:32:20;102501.53;;;7.85;86.32
38466;BME280;24244;51.950;5.902;2024-01-30T02:34:47;102501.09;;;7.80;86.72
38466;BME280;24244;51.950;5.902;2024-01-30T02:37:13;102488.22;;;7.76;86.57
38466;BME280;24244;51.950;5.902;2024-01-30T02:39:42;102490.16;;;7.74;86.68
38466;BME280;24244;51.950;5.902;2024-01-30T02:42:08;102488.72;;;7.70;86.36
38466;BME280;24244;51.950;5.902;2024-01-30T02:44:35;102479.22;;;7.67;86.64
38466;BME280;24244;51.950;5.902;2024-01-30T02:47:03;102482.97;;;7.65;86.53
38466;BME280;24244;51.950;5.902;2024-01-30T02:49:30;102483.31;;;7.60;86.47
38466;BME280;24244;51.950;5.902;2024-01-30T02:51:57;102481.91;;;7.56;86.61
38466;BME280;24244;51.950;5.902;2024-01-30T02:54:24;102481.44;;;7.51;86.57
38466;BME280;24244;51.950;5.902;2024-01-30T02:56:52;102475.31;;;7.51;86.72
38466;BME280;24244;51.950;5.902;2024-01-30T02:59:19;102477.34;;;7.47;86.63
38466;BME280;24244;51.950;5.902;2024-01-30T03:01:46;102486.38;;;7.44;86.37
38466;BME280;24244;51.950;5.902;2024-01-30T03:04:14;102481.22;;;7.43;86.63
38466;BME280;24244;51.950;5.902;2024-01-30T03:06:45;102478.94;;;7.38;86.42
38466;BME280;24244;51.950;5.902;2024-01-30T03:09:13;102467.75;;;7.35;86.41
38466;BME280;24244;51.950;5.902;2024-01-30T03:11:40;102478.72;;;7.30;86.30
38466;BME280;24244;51.950;5.902;2024-01-30T03:14:08;102481.72;;;7.26;86.42
38466;BME280;24244;51.950;5.902;2024-01-30T03:16:37;102469.72;;;7.22;86.68
38466;BME280;24244;51.950;5.902;2024-01-30T03:19:06;102471.75;;;7.18;86.31
38466;BME280;24244;51.950;5.902;2024-01-30T03:21:35;102469.59;;;7.12;86.47
38466;BME280;24244;51.950;5.902;2024-01-30T03:24:02;102473.19;;;7.11;86.41
38466;BME280;24244;51.950;5.902;2024-01-30T03:26:29;102466.47;;;7.07;86.40
38466;BME280;24244;51.950;5.902;2024-01-30T03:28:56;102464.91;;;7.04;86.47
38466;BME280;24244;51.950;5.902;2024-01-30T03:31:24;102463.47;;;7.00;86.40
38466;BME280;24244;51.950;5.902;2024-01-30T03:33:51;102458.19;;;7.00;86.18
38466;BME280;24244;51.950;5.902;2024-01-30T03:36:18;102452.19;;;6.98;86.58
38466;BME280;24244;51.950;5.902;2024-01-30T03:38:45;102445.34;;;6.96;86.69
38466;BME280;24244;51.950;5.902;2024-01-30T03:41:12;102457.84;;;6.94;86.30
38466;BME280;24244;51.950;5.902;2024-01-30T03:43:39;102446.66;;;6.90;86.39
38466;BME280;24244;51.950;5.902;2024-01-30T03:46:06;102445.34;;;6.85;86.24
38466;BME280;24244;51.950;5.902;2024-01-30T03:48:35;102441.97;;;6.83;86.45
38466;BME280;24244;51.950;5.902;2024-01-30T03:51:02;102436.81;;;6.81;86.65
38466;BME280;24244;51.950;5.902;2024-01-30T03:53:29;102437.66;;;6.82;86.47
38466;BME280;24244;51.950;5.902;2024-01-30T03:55:57;102443.78;;;6.82;86.40
38466;BME280;24244;51.950;5.902;2024-01-30T03:58:24;102444.03;;;6.79;86.38
38466;BME280;24244;51.950;5.902;2024-01-30T04:00:50;102438.84;;;6.78;86.30
38466;BME280;24244;51.950;5.902;2024-01-30T04:03:18;102435.47;;;6.76;86.41
38466;BME280;24244;51.950;5.902;2024-01-30T04:05:46;102432.16;;;6.74;86.74
38466;BME280;24244;51.950;5.902;2024-01-30T04:08:13;102433.81;;;6.75;86.55
38466;BME280;24244;51.950;5.902;2024-01-30T04:10:40;102442.56;;;6.75;86.65
38466;BME280;24244;51.950;5.902;2024-01-30T04:13:07;102440.75;;;6.76;86.69
38466;BME280;24244;51.950;5.902;2024-01-30T04:15:38;102446.06;;;6.76;86.43
38466;BME280;24244;51.950;5.902;2024-01-30T04:18:05;102446.06;;;6.76;86.34
38466;BME280;24244;51.950;5.902;2024-01-30T04:20:32;102452.31;;;6.75;86.46
38466;BME280;24244;51.950;5.902;2024-01-30T04:23:00;102446.31;;;6.73;86.29
38466;BME280;24244;51.950;5.902;2024-01-30T04:25:27;102449.91;;;6.72;86.22
38466;BME280;24244;51.950;5.902;2024-01-30T04:27:54;102444.75;;;6.70;86.42
38466;BME280;24244;51.950;5.902;2024-01-30T04:30:21;102442.94;;;6.71;86.48
38466;BME280;24244;51.950;5.902;2024-01-30T04:32:48;102440.41;;;6.69;86.39
38466;BME280;24244;51.950;5.902;2024-01-30T04:35:15;102434.44;;;6.67;86.46
38466;BME280;24244;51.950;5.902;2024-01-30T04:37:42;102437.06;;;6.67;86.46
38466;BME280;24244;51.950;5.902;2024-01-30T04:40:11;102435.38;;;6.66;86.44
38466;BME280;24244;51.950;5.902;2024-01-30T04:42:38;102431.16;;;6.63;86.36
38466;BME280;24244;51.950;5.902;2024-01-30T04:45:06;102438.25;;;6.63;86.70
38466;BME280;24244;51.950;5.902;2024-01-30T04:47:33;102433.81;;;6.63;86.81
38466;BME280;24244;51.950;5.902;2024-01-30T04:50:01;102428.41;;;6.65;86.70
38466;BME280;24244;51.950;5.902;2024-01-30T04:52:29;102426.63;;;6.65;86.64
38466;BME280;24244;51.950;5.902;2024-01-30T04:54:56;102418.56;;;6.67;86.79
38466;BME280;24244;51.950;5.902;2024-01-30T04:57:24;102425.41;;;6.69;86.60
38466;BME280;24244;51.950;5.902;2024-01-30T04:59:52;102412.06;;;6.71;86.75
38466;BME280;24244;51.950;5.902;2024-01-30T05:02:18;102424.22;;;6.74;86.67
38466;BME280;24244;51.950;5.902;2024-01-30T05:04:46;102414.22;;;6.77;86.80
38466;BME280;24244;51.950;5.902;2024-01-30T05:07:13;102423.63;;;6.81;86.81
38466;BME280;24244;51.950;5.902;2024-01-30T05:09:39;102417.22;;;6.84;86.65
38466;BME280;24244;51.950;5.902;2024-01-30T05:12:07;102413.41;;;6.88;86.78
38466;BME280;24244;51.950;5.902;2024-01-30T05:14:35;102405.09;;;6.92;86.83
38466;BME280;24244;51.950;5.902;2024-01-30T05:17:02;102404.72;;;6.97;86.82
38466;BME280;24244;51.950;5.902;2024-01-30T05:19:29;102402.56;;;7.02;86.71
38466;BME280;24244;51.950;5.902;2024-01-30T05:21:56;102407.59;;;7.05;86.60
38466;BME280;24244;51.950;5.902;2024-01-30T05:24:23;102407.25;;;7.10;86.72
38466;BME280;24244;51.950;5.902;2024-01-30T05:26:53;102406.97;;;7.13;86.77
38466;BME280;24244;51.950;5.902;2024-01-30T05:29:20;102414.56;;;7.17;86.67
38466;BME280;24244;51.950;5.902;2024-01-30T05:31:48;102413.34;;;7.21;86.87
38466;BME280;24244;51.950;5.902;2024-01-30T05:34:15;102418.25;;;7.26;86.74
38466;BME280;24244;51.950;5.902;2024-01-30T05:36:42;102418.84;;;7.29;86.72
38466;BME280;24244;51.950;5.902;2024-01-30T05:39:09;102411.47;;;7.33;86.80
38466;BME280;24244;51.950;5.902;2024-01-30T05:41:37;102421.72;;;7.37;86.77
38466;BME280;24244;51.950;5.902;2024-01-30T05:44:03;102419.66;;;7.41;86.85
38466;BME280;24244;51.950;5.902;2024-01-30T05:46:31;102422.06;;;7.44;86.68
38466;BME280;24244;51.950;5.902;2024-01-30T05:48:59;102413.72;;;7.48;86.82
38466;BME280;24244;51.950;5.902;2024-01-30T05:51:26;102408.03;;;7.53;86.80
38466;BME280;24244;51.950;5.902;2024-01-30T05:53:55;102401.69;;;7.56;86.66
38466;BME280;24244;51.950;5.902;2024-01-30T05:56:21;102400.47;;;7.60;86.96
38466;BME280;24244;51.950;5.902;2024-01-30T05:58:49;102398.41;;;7.63;86.66
38466;BME280;24244;51.950;5.902;2024-01-30T06:01:17;102400.81;;;7.66;86.70
38466;BME280;24244;51.950;5.902;2024-01-30T06:03:44;102395.25;;;7.69;86.84
38466;BME280;24244;51.950;5.902;2024-01-30T06:06:12;102397.66;;;7.72;86.76
38466;BME280;24244;51.950;5.902;2024-01-30T06:08:39;102414.09;;;7.76;86.82
38466;BME280;24244;51.950;5.902;2024-01-30T06:11:06;102412.16;;;7.78;86.95
38466;BME280;24244;51.950;5.902;2024-01-30T06:13:36;102417.06;;;7.82;86.87
38466;BME280;24244;51.950;5.902;2024-01-30T06:16:03;102416.09;;;7.83;86.95
38466;BME280;24244;51.950;5.902;2024-01-30T06:18:30;102404.31;;;7.88;87.02
38466;BME280;24244;51.950;5.902;2024-01-30T06:20:57;102409.34;;;7.91;86.88
38466;BME280;24244;51.950;5.902;2024-01-30T06:23:26;102415.34;;;7.93;86.86
38466;BME280;24244;51.950;5.902;2024-01-30T06:25:53;102410.63;;;7.96;86.95
38466;BME280;24244;51.950;5.902;2024-01-30T06:28:19;102406.03;;;7.98;86.91
38466;BME280;24244;51.950;5.902;2024-01-30T06:30:47;102409.28;;;8.02;87.20
38466;BME280;24244;51.950;5.902;2024-01-30T06:33:14;102415.28;;;8.04;86.91
38466;BME280;24244;51.950;5.902;2024-01-30T06:35:41;102417.69;;;8.07;86.97
38466;BME280;24244;51.950;5.902;2024-01-30T06:38:10;102416.59;;;8.09;86.95
38466;BME280;24244;51.950;5.902;2024-01-30T06:40:39;102421.63;;;8.12;87.19
38466;BME280;24244;51.950;5.902;2024-01-30T06:43:06;102418.72;;;8.15;86.92
38466;BME280;24244;51.950;5.902;2024-01-30T06:45:34;102415.09;;;8.16;87.06
38466;BME280;24244;51.950;5.902;2024-01-30T06:48:01;102417.47;;;8.19;86.95
38466;BME280;24244;51.950;5.902;2024-01-30T06:50:28;102426.00;;;8.23;87.20
38466;BME280;24244;51.950;5.902;2024-01-30T06:52:55;102413.34;;;8.26;87.08
38466;BME280;24244;51.950;5.902;2024-01-30T06:55:22;102414.91;;;8.29;86.96
38466;BME280;24244;51.950;5.902;2024-01-30T06:57:50;102413.81;;;8.32;87.24
38466;BME280;24244;51.950;5.902;2024-01-30T07:00:18;102416.22;;;8.35;86.99
38466;BME280;24244;51.950;5.902;2024-01-30T07:02:46;102417.75;;;8.37;86.89
38466;BME280;24244;51.950;5.902;2024-01-30T07:05:13;102415.81;;;8.39;86.99
38466;BME280;24244;51.950;5.902;2024-01-30T07:07:41;102412.06;;;8.42;87.08
38466;BME280;24244;51.950;5.902;2024-01-30T07:10:08;102419.75;;;8.45;87.05
38466;BME280;24244;51.950;5.902;2024-01-30T07:12:35;102425.63;;;8.48;86.95
38466;BME280;24244;51.950;5.902;2024-01-30T07:15:05;102430.66;;;8.51;87.23
38466;BME280;24244;51.950;5.902;2024-01-30T07:17:34;102435.81;;;8.53;87.10
38466;BME280;24244;51.950;5.902;2024-01-30T07:20:01;102431.09;;;8.56;87.07
38466;BME280;24244;51.950;5.902;2024-01-30T07:22:31;102430.00;;;8.59;87.14
38466;BME280;24244;51.950;5.902;2024-01-30T07:24:58;102429.84;;;8.60;87.29
38466;BME280;24244;51.950;5.902;2024-01-30T07:27:26;102444.66;;;8.63;87.20
38466;BME280;24244;51.950;5.902;2024-01-30T07:29:53;102440.09;;;8.65;87.24
38466;BME280;24244;51.950;5.902;2024-01-30T07:32:21;102445.25;;;8.67;86.88
38466;BME280;24244;51.950;5.902;2024-01-30T07:34:48;102457.38;;;8.69;87.12
38466;BME280;24244;51.950;5.902;2024-01-30T07:37:32;102451.97;;;8.71;87.37
38466;BME280;24244;51.950;5.902;2024-01-30T07:40:01;102445.69;;;8.72;87.35
38466;BME280;24244;51.950;5.902;2024-01-30T07:42:28;102454.34;;;8.74;87.33
38466;BME280;24244;51.950;5.902;2024-01-30T07:44:55;102445.28;;;8.76;87.12
38466;BME280;24244;51.950;5.902;2024-01-30T07:47:23;102449.63;;;8.77;87.09
38466;BME280;24244;51.950;5.902;2024-01-30T07:49:50;102442.50;;;8.78;86.99
38466;BME280;24244;51.950;5.902;2024-01-30T07:52:18;102432.63;;;8.80;87.18
38466;BME280;24244;51.950;5.902;2024-01-30T07:54:45;102450.88;;;8.83;87.23
38466;BME280;24244;51.950;5.902;2024-01-30T07:57:12;102456.06;;;8.84;87.22
38466;BME280;24244;51.950;5.902;2024-01-30T07:59:39;102463.91;;;8.86;87.21
38466;BME280;24244;51.950;5.902;2024-01-30T08:02:06;102468.06;;;8.88;87.30
38466;BME280;24244;51.950;5.902;2024-01-30T08:04:34;102468.78;;;8.90;87.38
38466;BME280;24244;51.950;5.902;2024-01-30T08:07:01;102466.97;;;8.91;87.22
38466;BME280;24244;51.950;5.902;2024-01-30T08:09:28;102479.13;;;8.93;87.54
38466;BME280;24244;51.950;5.902;2024-01-30T08:11:55;102479.00;;;8.95;87.35
38466;BME280;24244;51.950;5.902;2024-01-30T08:14:22;102482.34;;;8.97;87.53
38466;BME280;24244;51.950;5.902;2024-01-30T08:16:49;102481.25;;;8.99;87.50
38466;BME280;24244;51.950;5.902;2024-01-30T08:19:16;102474.97;;;9.00;87.59
38466;BME280;24244;51.950;5.902;2024-01-30T08:21:44;102476.38;;;9.04;87.27
38466;BME280;24244;51.950;5.902;2024-01-30T08:24:11;102482.41;;;9.07;87.50
38466;BME280;24244;51.950;5.902;2024-01-30T08:26:37;102486.59;;;9.09;87.22
38466;BME280;24244;51.950;5.902;2024-01-30T08:29:05;102488.97;;;9.12;87.32
38466;BME280;24244;51.950;5.902;2024-01-30T08:31:32;102481.72;;;9.14;87.14
38466;BME280;24244;51.950;5.902;2024-01-30T08:33:59;102486.63;;;9.19;87.53
38466;BME280;24244;51.950;5.902;2024-01-30T08:36:26;102482.03;;;9.21;87.13
38466;BME280;24244;51.950;5.902;2024-01-30T08:38:54;102478.28;;;9.23;87.45
38466;BME280;24244;51.950;5.902;2024-01-30T08:41:27;102477.97;;;9.26;87.31
38466;BME280;24244;51.950;5.902;2024-01-30T08:43:54;102480.38;;;9.29;87.39
38466;BME280;24244;51.950;5.902;2024-01-30T08:46:21;102479.25;;;9.32;87.47
38466;BME280;24244;51.950;5.902;2024-01-30T08:48:48;102481.66;;;9.35;87.32
38466;BME280;24244;51.950;5.902;2024-01-30T08:51:15;102474.22;;;9.38;87.46
38466;BME280;24244;51.950;5.902;2024-01-30T08:53:42;102476.75;;;9.40;87.70
38466;BME280;24244;51.950;5.902;2024-01-30T08:56:11;102476.50;;;9.43;87.17
38466;BME280;24244;51.950;5.902;2024-01-30T08:58:37;102478.03;;;9.46;87.19
38466;BME280;24244;51.950;5.902;2024-01-30T09:01:05;102482.22;;;9.48;87.40
38466;BME280;24244;51.950;5.902;2024-01-30T09:03:32;102485.59;;;9.50;87.55
38466;BME280;24244;51.950;5.902;2024-01-30T09:05:59;102485.31;;;9.53;87.48
38466;BME280;24244;51.950;5.902;2024-01-30T09:08:26;102483.22;;;9.57;87.24
38466;BME280;24244;51.950;5.902;2024-01-30T09:10:54;102475.97;;;9.59;87.50
38466;BME280;24244;51.950;5.902;2024-01-30T09:13:23;102487.97;;;9.63;87.46
38466;BME280;24244;51.950;5.902;2024-01-30T09:15:50;102487.84;;;9.64;87.26
38466;BME280;24244;51.950;5.902;2024-01-30T09:18:18;102485.88;;;9.66;87.12
38466;BME280;24244;51.950;5.902;2024-01-30T09:20:45;102486.59;;;9.68;87.21
38466;BME280;24244;51.950;5.902;2024-01-30T09:23:14;102494.28;;;9.71;87.26
38466;BME280;24244;51.950;5.902;2024-01-30T09:25:41;102490.66;;;9.72;87.27
38466;BME280;24244;51.950;5.902;2024-01-30T09:28:07;102488.69;;;9.74;87.39
38466;BME280;24244;51.950;5.902;2024-01-30T09:30:36;102494.56;;;9.78;87.19
38466;BME280;24244;51.950;5.902;2024-01-30T09:33:03;102493.44;;;9.80;87.24
38466;BME280;24244;51.950;5.902;2024-01-30T09:35:30;102495.00;;;9.83;87.20
38466;BME280;24244;51.950;5.902;2024-01-30T09:37:58;102491.22;;;9.86;87.49
38466;BME280;24244;51.950;5.902;2024-01-30T09:40:25;102490.94;;;9.89;87.47
38466;BME280;24244;51.950;5.902;2024-01-30T09:42:52;102497.78;;;9.91;87.33
38466;BME280;24244;51.950;5.902;2024-01-30T09:45:24;102491.38;;;9.94;87.30
38466;BME280;24244;51.950;5.902;2024-01-30T09:47:53;102508.84;;;9.96;87.44
38466;BME280;24244;51.950;5.902;2024-01-30T09:50:20;102507.72;;;9.99;87.58
38466;BME280;24244;51.950;5.902;2024-01-30T09:52:47;102498.66;;;10.01;87.45
38466;BME280;24244;51.950;5.902;2024-01-30T09:55:14;102503.66;;;10.04;87.30
38466;BME280;24244;51.950;5.902;2024-01-30T09:57:42;102499.06;;;10.06;87.54
38466;BME280;24244;51.950;5.902;2024-01-30T10:00:10;102494.28;;;10.10;87.62
38466;BME280;24244;51.950;5.902;2024-01-30T10:02:39;102505.50;;;10.13;87.40
38466;BME280;24244;51.950;5.902;2024-01-30T10:05:08;102508.84;;;10.15;87.25
38466;BME280;24244;51.950;5.902;2024-01-30T10:07:35;102496.28;;;10.17;87.60
38466;BME280;24244;51.950;5.902;2024-01-30T10:10:02;102511.09;;;10.20;87.34
38466;BME280;24244;51.950;5.902;2024-01-30T10:12:29;102504.69;;;10.23;87.33
38466;BME280;24244;51.950;5.902;2024-01-30T10:14:56;102506.91;;;10.27;87.47
38466;BME280;24244;51.950;5.902;2024-01-30T10:17:25;102509.25;;;10.30;87.24
38466;BME280;24244;51.950;5.902;2024-01-30T10:19:59;102506.34;;;10.33;87.31
38466;BME280;24244;51.950;5.902;2024-01-30T10:22:29;102512.22;;;10.37;87.36
38466;BME280;24244;51.950;5.902;2024-01-30T10:24:57;102511.09;;;10.39;87.66
38466;BME280;24244;51.950;5.902;2024-01-30T10:27:25;102514.97;;;10.45;87.44
38466;BME280;24244;51.950;5.902;2024-01-30T10:29:53;102507.72;;;10.47;87.42
38466;BME280;24244;51.950;5.902;2024-01-30T10:32:20;102521.56;;;10.50;87.46
38466;BME280;24244;51.950;5.902;2024-01-30T10:34:47;102518.63;;;10.53;87.53
38466;BME280;24244;51.950;5.902;2024-01-30T10:37:15;102521.00;;;10.56;87.62
38466;BME280;24244;51.950;5.902;2024-01-30T10:39:45;102511.88;;;10.59;87.25
38466;BME280;24244;51.950;5.902;2024-01-30T10:42:16;102507.13;;;10.63;87.60
38466;BME280;24244;51.950;5.902;2024-01-30T10:44:50;102507.00;;;10.64;87.83
38466;BME280;24244;51.950;5.902;2024-01-30T10:47:26;102507.66;;;10.66;87.60
38466;BME280;24244;51.950;5.902;2024-01-30T10:49:54;102503.88;;;10.69;87.81
38466;BME280;24244;51.950;5.902;2024-01-30T10:52:23;102515.09;;;10.72;87.67
38466;BME280;24244;51.950;5.902;2024-01-30T10:54:54;102515.50;;;10.77;87.60
38466;BME280;24244;51.950;5.902;2024-01-30T10:57:23;102514.38;;;10.80;87.78
38466;BME280;24244;51.950;5.902;2024-01-30T10:59:51;102514.06;;;10.83;87.51
38466;BME280;24244;51.950;5.902;2024-01-30T11:02:19;102515.59;;;10.85;87.65
38466;BME280;24244;51.950;5.902;2024-01-30T11:04:46;102513.63;;;10.87;87.77
38466;BME280;24244;51.950;5.902;2024-01-30T11:07:15;102510.69;;;10.90;87.94
38466;BME280;24244;51.950;5.902;2024-01-30T11:09:48;102519.38;;;10.92;87.67
38466;BME280;24244;51.950;5.902;2024-01-30T11:12:21;102514.56;;;10.96;88.12
38466;BME280;24244;51.950;5.902;2024-01-30T11:14:48;102503.66;;;10.99;87.70
38466;BME280;24244;51.950;5.902;2024-01-30T11:17:15;102501.69;;;11.01;88.01
38466;BME280;24244;51.950;5.902;2024-01-30T11:19:42;102499.69;;;11.03;88.02
38466;BME280;24244;51.950;5.902;2024-01-30T11:22:10;102511.75;;;11.07;87.80
38466;BME280;24244;51.950;5.902;2024-01-30T11:24:41;102508.78;;;11.10;87.99
38466;BME280;24244;51.950;5.902;2024-01-30T11:27:09;102505.84;;;11.13;87.99
38466;BME280;24244;51.950;5.902;2024-01-30T11:29:41;102513.50;;;11.16;88.10
38466;BME280;24244;51.950;5.902;2024-01-30T11:32:08;102515.88;;;11.19;87.96
38466;BME280;24244;51.950;5.902;2024-01-30T11:34:35;102506.59;;;11.23;87.77
38466;BME280;24244;51.950;5.902;2024-01-30T11:37:10;102509.13;;;11.25;87.90
38466;BME280;24244;51.950;5.902;2024-01-30T11:39:38;102505.50;;;11.26;87.86
38466;BME280;24244;51.950;5.902;2024-01-30T11:42:08;102499.88;;;11.29;87.87
38466;BME280;24244;51.950;5.902;2024-01-30T11:44:35;102503.91;;;11.33;87.64
38466;BME280;24244;51.950;5.902;2024-01-30T11:47:04;102493.13;;;11.34;87.65
38466;BME280;24244;51.950;5.902;2024-01-30T11:49:30;102506.97;;;11.38;87.59
38466;BME280;24244;51.950;5.902;2024-01-30T11:51:58;102508.50;;;11.41;87.42
38466;BME280;24244;51.950;5.902;2024-01-30T11:54:24;102508.22;;;11.44;87.38
38466;BME280;24244;51.950;5.902;2024-01-30T11:56:51;102506.91;;;11.48;87.59
38466;BME280;24244;51.950;5.902;2024-01-30T11:59:18;102508.44;;;11.50;87.52
38466;BME280;24244;51.950;5.902;2024-01-30T12:01:45;102509.94;;;11.53;87.64
38466;BME280;24244;51.950;5.902;2024-01-30T12:04:13;102507.00;;;11.56;87.12
38466;BME280;24244;51.950;5.902;2024-01-30T12:06:40;102515.69;;;11.58;87.24
38466;BME280;24244;51.950;5.902;2024-01-30T12:09:09;102509.22;;;11.60;87.06
38466;BME280;24244;51.950;5.902;2024-01-30T12:11:44;102509.75;;;11.64;87.13
38466;BME280;24244;51.950;5.902;2024-01-30T12:14:12;102502.44;;;11.66;86.90
38466;BME280;24244;51.950;5.902;2024-01-30T12:16:39;102505.78;;;11.68;87.01
38466;BME280;24244;51.950;5.902;2024-01-30T12:19:06;102503.97;;;11.68;87.20
38466;BME280;24244;51.950;5.902;2024-01-30T12:21:34;102500.31;;;11.69;86.83
38466;BME280;24244;51.950;5.902;2024-01-30T12:24:01;102499.19;;;11.72;86.79
38466;BME280;24244;51.950;5.902;2024-01-30T12:26:28;102511.50;;;11.73;86.77
38466;BME280;24244;51.950;5.902;2024-01-30T12:28:56;102506.91;;;11.75;86.78
38466;BME280;24244;51.950;5.902;2024-01-30T12:31:25;102503.25;;;11.76;86.83
38466;BME280;24244;51.950;5.902;2024-01-30T12:33:53;102520.22;;;11.75;86.51
38466;BME280;24244;51.950;5.902;2024-01-30T12:36:21;102516.44;;;11.77;86.50
38466;BME280;24244;51.950;5.902;2024-01-30T12:38:49;102523.44;;;11.79;86.46
38466;BME280;24244;51.950;5.902;2024-01-30T12:41:17;102532.28;;;11.79;86.07
38466;BME280;24244;51.950;5.902;2024-01-30T12:43:43;102529.59;;;11.79;86.03
38466;BME280;24244;51.950;5.902;2024-01-30T12:46:11;102537.41;;;11.81;85.92
38466;BME280;24244;51.950;5.902;2024-01-30T12:48:38;102555.94;;;11.82;86.04
38466;BME280;24244;51.950;5.902;2024-01-30T12:51:05;102558.72;;;11.81;86.00
38466;BME280;24244;51.950;5.902;2024-01-30T12:53:32;102557.22;;;11.78;85.63
38466;BME280;24244;51.950;5.902;2024-01-30T12:56:01;102557.38;;;11.76;85.82
38466;BME280;24244;51.950;5.902;2024-01-30T12:58:27;102558.50;;;11.74;86.02
38466;BME280;24244;51.950;5.902;2024-01-30T13:00:54;102551.47;;;11.73;86.02